Time;durP1;ratioP1;P1;durP2;ratioP2;P2;SDS_P1;SDS_P2;PMS_P1;PMS_P2;Temp;Humidity;BMP_temperature;BMP_pressure;BME280_temperature;BME280_humidity;BME280_pressure;Samples;Min_cycle;Max_cycle;Signal;HPM_P1;HPM_P2
2021/07/16 00:00:11;;;;;;;17.57;12.53;;;;;;;20.71;75.36;96888.28;1814298;78;28316;-83
2021/07/16 00:02:42;;;;;;;16.62;12.03;;;;;;;20.69;75.44;96889.12;1822817;78;25465;-84
2021/07/16 00:05:11;;;;;;;20.92;12.88;;;;;;;20.65;75.44;96885.34;1823415;78;25783;-85
2021/07/16 00:07:39;;;;;;;20.12;13.05;;;;;;;20.62;75.44;96884.53;1822522;77;25741;-84
2021/07/16 00:10:09;;;;;;;17.40;12.25;;;;;;;20.54;75.48;96883.77;1823275;78;25888;-85
2021/07/16 00:12:36;;;;;;;20.77;12.25;;;;;;;20.46;75.61;96876.44;1823514;78;27435;-86
2021/07/16 00:15:05;;;;;;;22.48;12.88;;;;;;;20.34;75.65;96869.11;1822890;77;25886;-86
2021/07/16 00:17:32;;;;;;;17.80;13.00;;;;;;;20.27;75.93;96863.14;1823331;77;25630;-85
2021/07/16 00:19:59;;;;;;;16.55;12.68;;;;;;;20.24;76.11;96860.97;1823645;78;26501;-85
2021/07/16 00:22:26;;;;;;;18.82;12.88;;;;;;;20.21;76.18;96861.53;1823280;78;25739;-85
2021/07/16 00:24:53;;;;;;;18.25;12.95;;;;;;;20.24;76.38;96869.19;1823216;78;27363;-86
2021/07/16 00:27:20;;;;;;;21.52;12.82;;;;;;;20.25;76.46;96866.72;1813410;78;25971;-85
2021/07/16 00:29:46;;;;;;;21.97;13.35;;;;;;;20.24;76.47;96869.19;1816418;78;25626;-87
2021/07/16 00:32:13;;;;;;;17.82;12.33;;;;;;;20.20;76.50;96877.70;1815554;78;26129;-87
2021/07/16 00:34:40;;;;;;;23.22;13.50;;;;;;;20.21;76.69;96883.45;1823500;78;25348;-85
2021/07/16 00:37:07;;;;;;;18.40;13.10;;;;;;;20.20;76.73;96880.45;1790116;78;27411;-83
2021/07/16 00:39:35;;;;;;;20.32;13.10;;;;;;;20.15;76.83;96887.35;1819743;78;25921;-85
2021/07/16 00:42:03;;;;;;;17.20;12.03;;;;;;;20.16;77.04;96885.43;1799348;78;25922;-88
2021/07/16 00:44:32;;;;;;;18.35;12.30;;;;;;;20.19;76.93;96897.98;1811055;77;26240;-86
2021/07/16 00:46:59;;;;;;;19.57;12.25;;;;;;;20.22;77.12;96899.34;1823663;78;25758;-87
2021/07/16 00:49:26;;;;;;;17.98;12.07;;;;;;;20.21;77.15;96904.56;1823262;78;28174;-85
2021/07/16 00:51:54;;;;;;;15.60;11.08;;;;;;;20.19;77.13;96904.84;1823647;78;25676;-87
2021/07/16 00:54:20;;;;;;;18.20;11.08;;;;;;;20.21;77.13;96899.90;1808726;77;25854;-86
2021/07/16 00:56:47;;;;;;;17.57;11.68;;;;;;;20.22;77.12;96895.23;1816016;78;26583;-86
2021/07/16 00:59:16;;;;;;;16.80;11.28;;;;;;;20.25;77.21;96891.38;1823500;78;25731;-87
2021/07/16 01:01:46;;;;;;;15.10;10.72;;;;;;;20.31;77.23;96899.00;1823478;78;28053;-85
2021/07/16 01:04:13;;;;;;;16.15;11.10;;;;;;;20.32;77.22;96895.98;1801529;78;25729;-87
2021/07/16 01:06:40;;;;;;;17.48;10.80;;;;;;;20.36;77.22;96890.23;1821341;78;25815;-86
2021/07/16 01:09:07;;;;;;;18.70;11.48;;;;;;;20.37;77.20;96880.91;1823736;78;25736;-86
2021/07/16 01:11:35;;;;;;;15.40;11.50;;;;;;;20.39;77.25;96882.81;1823430;77;25763;-86
2021/07/16 01:14:02;;;;;;;15.83;11.20;;;;;;;20.38;77.18;96883.91;1823648;77;27350;-86
2021/07/16 01:16:30;;;;;;;16.12;10.63;;;;;;;20.40;77.16;96884.45;1823069;78;25727;-86
2021/07/16 01:18:58;;;;;;;15.78;11.75;;;;;;;20.32;77.02;96898.72;1823617;77;25692;-84
2021/07/16 01:21:28;;;;;;;15.03;11.10;;;;;;;20.26;77.16;96898.50;1815096;77;26503;-86
2021/07/16 01:23:55;;;;;;;15.18;11.25;;;;;;;20.27;77.30;96895.21;1808608;78;25215;-84
2021/07/16 01:26:23;;;;;;;16.40;10.48;;;;;;;20.30;77.37;96894.62;1823585;78;27351;-84
2021/07/16 01:28:52;;;;;;;19.73;11.00;;;;;;;20.31;77.40;96905.30;1823312;78;25657;-86
2021/07/16 01:31:19;;;;;;;17.35;11.55;;;;;;;20.25;77.31;96914.67;1823649;78;25715;-85
2021/07/16 01:33:47;;;;;;;15.23;11.48;;;;;;;20.24;77.39;96908.92;1792758;78;25681;-84
2021/07/16 01:36:13;;;;;;;13.30;11.03;;;;;;;20.24;77.41;96906.19;1823839;78;25708;-84
2021/07/16 01:38:40;;;;;;;17.62;11.75;;;;;;;20.29;77.43;96907.50;1828233;77;27384;-85
2021/07/16 01:41:07;;;;;;;15.58;11.55;;;;;;;20.30;77.43;96915.99;1817132;77;25878;-84
2021/07/16 01:43:33;;;;;;;18.30;12.73;;;;;;;20.26;77.45;96921.80;1806584;78;25660;-85
2021/07/16 01:46:00;;;;;;;16.40;12.03;;;;;;;20.21;77.45;96916.89;1829607;78;25676;-84
2021/07/16 01:48:27;;;;;;;20.27;12.93;;;;;;;20.18;77.59;96918.27;1824275;77;26288;-85
2021/07/16 01:50:54;;;;;;;22.10;13.93;;;;;;;20.17;77.65;96916.63;1822476;78;27351;-84
2021/07/16 01:53:21;;;;;;;16.93;13.00;;;;;;;20.17;77.70;96923.48;1828857;78;25691;-84
2021/07/16 01:55:48;;;;;;;18.92;13.10;;;;;;;20.19;77.70;96925.94;1829490;78;25680;-84
2021/07/16 01:58:16;;;;;;;18.27;13.00;;;;;;;20.23;77.70;96925.10;1829732;78;25733;-85
2021/07/16 02:00:47;;;;;;;22.55;13.80;;;;;;;20.23;77.73;96922.36;1829472;77;25681;-85
2021/07/16 02:03:16;;;;;;;18.62;12.95;;;;;;;20.15;77.60;96929.82;1829629;77;27352;-84
2021/07/16 02:05:46;;;;;;;19.70;13.65;;;;;;;20.03;77.64;96933.45;1829134;78;25701;-85
2021/07/16 02:08:20;;;;;;;20.32;13.20;;;;;;;20.00;77.92;96944.97;1829556;77;25711;-83
2021/07/16 02:10:51;;;;;;;19.27;12.13;;;;;;;19.99;78.05;96946.08;1828212;77;25906;-83
2021/07/16 02:13:18;;;;;;;14.63;12.40;;;;;;;20.00;78.07;96940.31;1829905;78;25709;-83
2021/07/16 02:15:48;;;;;;;17.77;12.53;;;;;;;20.01;78.13;96949.36;1829465;77;27405;-83
2021/07/16 02:18:19;;;;;;;19.45;12.60;;;;;;;19.99;78.09;96953.74;1829332;78;25664;-82
2021/07/16 02:20:46;;;;;;;18.17;13.00;;;;;;;19.99;78.11;96946.08;1814315;78;25791;-84
2021/07/16 02:23:18;;;;;;;20.17;12.98;;;;;;;20.00;78.14;96946.34;1820435;78;25761;-83
2021/07/16 02:25:45;;;;;;;20.35;13.70;;;;;;;20.02;78.11;96949.63;1810915;77;25728;-84
2021/07/16 02:28:29;;;;;;;18.05;13.15;;;;;;;20.04;78.14;96948.25;1802640;78;27413;-84
2021/07/16 02:30:59;;;;;;;18.70;13.85;;;;;;;20.05;78.09;96950.41;1784715;80;26125;-83
2021/07/16 02:33:26;;;;;;;16.52;12.73;;;;;;;20.03;78.12;96944.41;1785422;79;25847;-83
2021/07/16 02:35:53;;;;;;;21.90;14.18;;;;;;;20.05;78.11;96940.81;1785542;80;25708;-83
2021/07/16 02:38:22;;;;;;;19.17;13.65;;;;;;;20.04;78.04;96936.47;1783759;80;25737;-84
2021/07/16 02:40:50;;;;;;;19.50;12.88;;;;;;;19.94;77.97;96944.17;1782549;79;27393;-84
2021/07/16 02:43:16;;;;;;;17.70;13.25;;;;;;;19.78;78.01;96947.55;1744871;81;25366;-84
2021/07/16 02:45:44;;;;;;;19.10;13.72;;;;;;;19.72;78.27;96948.66;1782358;78;25876;-83
2021/07/16 02:48:11;;;;;;;21.62;14.65;;;;;;;19.75;78.46;96938.53;1782463;78;25712;-83
2021/07/16 02:50:41;;;;;;;19.35;15.40;;;;;;;19.83;78.51;96934.37;1782439;80;25848;-83
2021/07/16 02:53:13;;;;;;;19.70;13.70;;;;;;;19.86;78.46;96937.10;1745159;82;27437;-83
2021/07/16 02:55:40;;;;;;;20.90;14.85;;;;;;;19.84;78.31;96939.30;1779651;80;25862;-83
2021/07/16 02:58:08;;;;;;;18.87;14.23;;;;;;;19.70;78.26;96940.45;1782509;80;25774;-84
2021/07/16 03:00:36;;;;;;;20.75;14.23;;;;;;;19.61;78.36;96942.97;1778625;80;25681;-83
2021/07/16 03:03:03;;;;;;;17.55;15.00;;;;;;;19.59;78.54;96945.16;1769954;80;25500;-83
2021/07/16 03:05:35;;;;;;;19.52;13.55;;;;;;;19.59;78.62;96935.58;1780150;80;28191;-84
2021/07/16 03:08:03;;;;;;;21.27;13.75;;;;;;;19.60;78.64;96938.59;1821840;78;25804;-84
2021/07/16 03:10:34;;;;;;;18.70;13.65;;;;;;;19.61;78.66;96938.86;1823406;78;25762;-83
2021/07/16 03:13:08;;;;;;;18.73;14.23;;;;;;;19.59;78.58;96931.47;1823433;78;25762;-84
2021/07/16 03:15:35;;;;;;;18.98;13.68;;;;;;;19.54;78.55;96939.72;1821997;78;25743;-84
2021/07/16 03:18:04;;;;;;;19.77;14.03;;;;;;;19.53;78.68;96935.89;1810678;78;27374;-83
2021/07/16 03:20:36;;;;;;;21.27;15.13;;;;;;;19.46;78.60;96926.56;1813495;78;25777;-83
2021/07/16 03:23:05;;;;;;;24.70;15.32;;;;;;;19.43;78.78;96924.41;1794587;78;25700;-84
2021/07/16 03:25:32;;;;;;;20.23;15.28;;;;;;;19.44;78.92;96927.41;1823402;78;26427;-83
2021/07/16 03:27:59;;;;;;;19.25;14.03;;;;;;;19.48;79.03;96925.73;1780124;78;25748;-83
2021/07/16 03:30:29;;;;;;;20.37;13.08;;;;;;;19.52;79.11;96917.83;1795803;77;27386;-84
2021/07/16 03:32:56;;;;;;;19.42;14.00;;;;;;;19.53;79.05;96912.08;1821200;78;26307;-83
2021/07/16 03:35:24;;;;;;;19.50;13.75;;;;;;;19.54;79.00;96905.50;1823430;78;25715;-83
2021/07/16 03:37:52;;;;;;;22.45;14.83;;;;;;;19.55;79.02;96905.77;1816993;77;25740;-83
2021/07/16 03:40:26;;;;;;;19.10;13.58;;;;;;;19.56;79.05;96911.48;1799628;78;25717;-83
2021/07/16 03:42:52;;;;;;;18.40;12.88;;;;;;;19.57;79.09;96919.16;1813607;77;27355;-83
2021/07/16 03:45:19;;;;;;;22.50;15.15;;;;;;;19.55;79.18;96921.37;1805059;78;26366;-84
2021/07/16 03:47:48;;;;;;;23.00;15.80;;;;;;;19.58;79.31;96920.25;1811524;78;25723;-84
2021/07/16 03:50:20;;;;;;;23.18;15.72;;;;;;;19.60;79.41;96918.05;1808176;78;25694;-84
2021/07/16 03:52:47;;;;;;;22.02;15.25;;;;;;;19.64;79.41;96917.77;1810048;78;25226;-83
2021/07/16 03:55:14;;;;;;;21.80;15.03;;;;;;;19.65;79.47;96918.59;1812623;78;27332;-83
2021/07/16 03:57:47;;;;;;;23.62;15.28;;;;;;;19.68;79.46;96918.83;1817499;78;25731;-84
2021/07/16 04:00:18;;;;;;;22.77;14.95;;;;;;;19.71;79.53;96923.75;1823539;78;25661;-84
2021/07/16 04:02:45;;;;;;;20.40;15.40;;;;;;;19.74;79.54;96925.11;1823412;78;25803;-84
2021/07/16 04:05:12;;;;;;;23.27;16.37;;;;;;;19.76;79.52;96926.48;1823506;78;25689;-84
2021/07/16 04:07:45;;;;;;;21.87;16.77;;;;;;;19.81;79.52;96927.53;1829051;77;27307;-84
2021/07/16 04:10:10;;;;;;;28.45;16.50;;;;;;;19.82;79.49;96925.06;1822616;78;25754;-84
2021/07/16 04:12:37;;;;;;;25.97;16.75;;;;;;;19.85;79.48;96928.06;1823580;78;25246;-84
2021/07/16 04:15:05;;;;;;;27.67;17.55;;;;;;;19.84;79.46;96936.56;1820135;77;25753;-84
2021/07/16 04:17:32;;;;;;;25.25;17.65;;;;;;;19.87;79.54;96941.48;1821886;78;25784;-84
2021/07/16 04:19:59;;;;;;;20.48;16.57;;;;;;;19.90;79.59;96934.08;1830628;77;27353;-83
2021/07/16 04:22:26;;;;;;;30.97;20.35;;;;;;;19.88;79.49;96931.62;1823351;78;25886;-83
2021/07/16 04:24:53;;;;;;;27.40;19.32;;;;;;;19.91;79.47;96937.91;1823338;78;25246;-83
2021/07/16 04:27:20;;;;;;;24.67;18.87;;;;;;;19.96;79.45;96932.94;1823449;78;26372;-83
2021/07/16 04:29:47;;;;;;;21.37;16.75;;;;;;;20.01;79.43;96931.55;1823559;78;26381;-83
2021/07/16 04:32:14;;;;;;;25.48;17.05;;;;;;;20.00;79.34;96934.02;1823361;77;28170;-83
2021/07/16 04:34:42;;;;;;;25.92;16.85;;;;;;;20.02;79.46;96936.75;1823542;78;25658;-83
2021/07/16 04:37:09;;;;;;;23.65;16.90;;;;;;;20.05;79.50;96946.30;1823594;77;25692;-83
2021/07/16 04:39:37;;;;;;;22.07;15.88;;;;;;;20.07;79.46;96956.42;1828573;78;25826;-83
2021/07/16 04:42:05;;;;;;;20.92;15.38;;;;;;;20.08;79.38;96953.95;1829640;77;26347;-83
2021/07/16 04:44:32;;;;;;;21.15;15.98;;;;;;;20.09;79.29;96959.70;1829655;77;28117;-83
2021/07/16 04:47:00;;;;;;;26.90;15.65;;;;;;;20.08;79.22;96955.33;1829439;78;26328;-84
2021/07/16 04:49:28;;;;;;;18.12;14.25;;;;;;;20.09;79.24;96955.60;1829604;78;25701;-86
2021/07/16 04:51:55;;;;;;;18.45;15.83;;;;;;;20.13;79.29;96953.94;1829657;77;25761;-83
2021/07/16 04:54:22;;;;;;;21.93;15.63;;;;;;;20.14;79.32;96961.06;1829800;77;25673;-84
2021/07/16 04:56:49;;;;;;;25.75;16.17;;;;;;;20.13;79.28;96968.46;1831738;77;27344;-83
2021/07/16 04:59:16;;;;;;;22.58;16.17;;;;;;;20.17;79.32;96967.33;1824328;78;26194;-83
2021/07/16 05:01:43;;;;;;;19.50;15.45;;;;;;;20.23;79.36;96964.02;1829718;78;25799;-83
2021/07/16 05:04:10;;;;;;;19.35;15.72;;;;;;;20.26;79.36;96965.65;1829455;78;25614;-83
2021/07/16 05:06:36;;;;;;;21.90;16.15;;;;;;;20.32;79.28;96971.34;1834321;77;25690;-84
2021/07/16 05:09:04;;;;;;;19.92;15.70;;;;;;;20.35;79.26;96977.67;1831286;77;28090;-83
2021/07/16 05:11:31;;;;;;;18.42;14.80;;;;;;;20.38;79.20;96976.29;1821552;77;25807;-84
2021/07/16 05:13:58;;;;;;;21.45;15.10;;;;;;;20.41;79.25;96973.78;1829761;78;25864;-83
2021/07/16 05:16:25;;;;;;;16.97;14.18;;;;;;;20.45;79.28;96976.23;1829488;77;25653;-82
2021/07/16 05:18:52;;;;;;;19.82;14.20;;;;;;;20.52;79.21;96977.84;1829765;77;25684;-84
2021/07/16 05:21:19;;;;;;;16.75;13.38;;;;;;;20.57;79.12;96980.53;1828974;77;27326;-83
2021/07/16 05:23:46;;;;;;;16.12;12.53;;;;;;;20.62;79.13;96988.19;1829627;78;25716;-84
2021/07/16 05:26:13;;;;;;;18.62;13.25;;;;;;;20.69;79.08;96994.15;1829527;78;25708;-84
2021/07/16 05:28:40;;;;;;;15.98;12.50;;;;;;;20.77;78.99;97002.34;1829840;78;26587;-85
2021/07/16 05:31:08;;;;;;;21.00;14.90;;;;;;;20.81;78.84;97002.02;1829709;78;25429;-84
2021/07/16 05:33:35;;;;;;;20.30;13.08;;;;;;;20.86;78.72;97001.98;1829583;78;27360;-84
2021/07/16 05:36:02;;;;;;;22.93;12.47;;;;;;;20.91;78.62;97007.41;1829960;77;25624;-84
2021/07/16 05:38:29;;;;;;;18.98;12.18;;;;;;;20.94;78.59;97001.91;1810520;77;25886;-83
2021/07/16 05:40:56;;;;;;;16.20;11.78;;;;;;;21.00;78.66;97008.45;1823745;77;25958;-84
2021/07/16 05:43:22;;;;;;;13.25;11.15;;;;;;;21.08;78.41;97008.38;1818546;78;25743;-84
2021/07/16 05:45:49;;;;;;;17.52;11.12;;;;;;;21.13;77.98;97003.64;1807935;78;27416;-84
2021/07/16 05:48:17;;;;;;;12.15;10.65;;;;;;;21.16;77.90;97008.56;1801580;77;25752;-84
2021/07/16 05:50:46;;;;;;;13.60;10.70;;;;;;;21.23;78.01;97003.34;1823743;77;25624;-84
2021/07/16 05:53:15;;;;;;;17.90;10.63;;;;;;;21.29;77.94;97011.78;1807564;77;25755;-84
2021/07/16 05:55:41;;;;;;;14.38;10.48;;;;;;;21.35;77.80;97008.70;1807496;77;25866;-84
2021/07/16 05:58:09;;;;;;;13.05;10.38;;;;;;;21.42;77.62;97004.23;1823594;78;27390;-84
2021/07/16 06:00:36;;;;;;;11.95;10.68;;;;;;;21.48;77.44;97012.70;1823287;78;25659;-84
2021/07/16 06:03:04;;;;;;;14.78;10.75;;;;;;;21.51;77.21;97014.29;1823168;78;25779;-84
2021/07/16 06:05:36;;;;;;;17.40;10.88;;;;;;;21.55;77.04;97013.16;1795407;77;26600;-84
2021/07/16 06:08:03;;;;;;;16.27;10.93;;;;;;;21.59;76.93;97012.03;1829285;77;25647;-84
2021/07/16 06:10:31;;;;;;;13.32;10.50;;;;;;;21.61;76.73;97010.64;1826480;77;27354;-83
2021/07/16 06:12:58;;;;;;;15.28;12.47;;;;;;;21.64;76.63;97008.66;1802772;78;25644;-84
2021/07/16 06:15:25;;;;;;;18.12;13.03;;;;;;;21.69;76.71;97011.36;1795083;78;25658;-84
2021/07/16 06:17:51;;;;;;;15.72;12.50;;;;;;;21.69;76.77;97011.36;1786944;78;26351;-83
2021/07/16 06:20:18;;;;;;;18.65;12.75;;;;;;;21.72;76.72;97009.41;1808748;78;25701;-83
2021/07/16 06:22:45;;;;;;;19.00;13.05;;;;;;;21.76;76.66;97025.55;1807803;78;27365;-82
2021/07/16 06:25:15;;;;;;;15.35;12.07;;;;;;;21.78;76.51;97020.59;1823413;78;26337;-84
2021/07/16 06:27:41;;;;;;;20.92;13.15;;;;;;;21.81;76.47;97021.39;1823427;78;25763;-84
2021/07/16 06:30:10;;;;;;;15.30;12.45;;;;;;;21.85;76.49;97021.08;1800743;78;25671;-84
2021/07/16 06:32:38;;;;;;;16.42;12.85;;;;;;;21.84;76.45;97019.98;1823428;78;25210;-84
2021/07/16 06:35:08;;;;;;;24.85;13.58;;;;;;;21.84;76.68;97019.98;1823425;78;28221;-84
2021/07/16 06:37:36;;;;;;;16.65;12.37;;;;;;;21.89;76.69;97016.61;1798643;78;25661;-83
2021/07/16 06:40:06;;;;;;;16.95;13.28;;;;;;;21.96;76.51;97012.16;1814246;77;25702;-84
2021/07/16 06:42:33;;;;;;;16.48;12.45;;;;;;;22.05;76.24;97010.97;1818209;78;25897;-84
2021/07/16 06:44:59;;;;;;;18.82;13.08;;;;;;;22.12;76.05;97007.29;1816559;78;25758;-85
2021/07/16 06:47:26;;;;;;;16.45;12.43;;;;;;;22.20;75.93;97005.28;1818537;78;28105;-83
2021/07/16 06:49:55;;;;;;;17.90;14.05;;;;;;;22.26;75.79;97005.45;1807751;78;25748;-82
2021/07/16 06:52:22;;;;;;;20.10;13.58;;;;;;;22.32;75.77;97011.72;1794363;78;25761;-83
2021/07/16 06:54:49;;;;;;;19.75;13.10;;;;;;;22.36;75.82;97004.48;1817646;78;26494;-83
2021/07/16 06:57:15;;;;;;;19.32;13.28;;;;;;;22.43;75.77;97003.02;1818574;77;25697;-83
2021/07/16 06:59:42;;;;;;;17.90;12.60;;;;;;;22.61;75.81;97002.75;1818418;77;27356;-84
2021/07/16 07:02:08;;;;;;;14.58;11.53;;;;;;;22.61;75.81;97002.75;1818333;78;25741;-84
2021/07/16 07:04:35;;;;;;;15.40;11.68;;;;;;;22.69;75.67;97006.22;1814982;78;25764;-82
2021/07/16 07:07:02;;;;;;;15.45;12.10;;;;;;;22.69;75.67;97006.22;1808324;78;25725;-83
2021/07/16 07:09:29;;;;;;;17.45;13.03;;;;;;;22.72;75.21;97003.41;1816527;78;25747;-83
2021/07/16 07:11:55;;;;;;;14.70;12.63;;;;;;;22.80;75.27;97005.53;1797751;78;27964;-83
2021/07/16 07:14:22;;;;;;;16.42;12.03;;;;;;;22.86;75.10;97012.58;1818432;78;25835;-83
2021/07/16 07:16:48;;;;;;;15.13;12.35;;;;;;;22.90;74.89;97008.12;1818493;78;25690;-82
2021/07/16 07:19:17;;;;;;;17.45;12.75;;;;;;;22.94;74.75;97013.29;1817775;77;53966;-83
2021/07/16 07:21:44;;;;;;;20.65;14.00;;;;;;;23.00;74.62;97012.08;1818081;78;25590;-84
2021/07/16 07:24:10;;;;;;;17.35;12.78;;;;;;;23.02;74.63;97013.16;1818367;78;27452;-85
2021/07/16 07:26:37;;;;;;;26.37;15.43;;;;;;;23.10;74.44;97011.90;1823720;77;25992;-87
2021/07/16 07:29:03;;;;;;;17.52;12.43;;;;;;;23.10;74.44;97011.90;1818324;78;25676;-85
2021/07/16 07:31:30;;;;;;;16.35;12.65;;;;;;;23.17;74.34;97013.72;1818493;77;26436;-85
2021/07/16 07:33:57;;;;;;;16.32;12.20;;;;;;;23.22;73.99;97005.91;1818386;77;26280;-83
2021/07/16 07:36:23;;;;;;;14.55;11.73;;;;;;;23.40;73.78;97007.81;1823558;77;27310;-86
2021/07/16 07:38:50;;;;;;;20.17;13.08;;;;;;;23.51;73.64;97004.34;1818718;77;25793;-84
2021/07/16 07:41:16;;;;;;;16.45;12.85;;;;;;;23.61;73.61;97004.14;1822942;77;25752;-84
2021/07/16 07:43:43;;;;;;;16.57;12.80;;;;;;;23.72;73.43;97012.46;1823387;77;25882;-85
2021/07/16 07:46:09;;;;;;;16.52;13.20;;;;;;;23.81;73.17;97003.73;1823287;77;25707;-84
2021/07/16 07:48:36;;;;;;;15.95;12.82;;;;;;;23.91;73.08;97002.14;1823405;78;28124;-83
2021/07/16 07:51:03;;;;;;;16.55;12.90;;;;;;;23.95;73.22;96996.28;1823156;78;25757;-83
2021/07/16 07:53:30;;;;;;;17.37;12.85;;;;;;;24.03;72.89;96999.69;1809591;78;25745;-84
2021/07/16 07:55:56;;;;;;;15.38;13.32;;;;;;;24.11;72.56;96994.03;1807023;78;25654;-84
2021/07/16 07:58:23;;;;;;;16.15;13.15;;;;;;;24.28;72.32;96992.03;1823592;77;26298;-85
2021/07/16 08:00:49;;;;;;;15.93;12.85;;;;;;;24.51;72.14;96995.69;1787994;78;27338;-87
2021/07/16 08:03:16;;;;;;;14.98;12.90;;;;;;;24.75;72.17;96996.22;1779587;78;26249;-83
2021/07/16 08:05:43;;;;;;;17.10;13.25;;;;;;;25.01;71.52;97001.95;1819256;78;25248;-85
2021/07/16 08:08:09;;;;;;;14.50;11.97;;;;;;;25.13;71.09;97004.95;1823529;78;25728;-84
2021/07/16 08:10:36;;;;;;;17.23;14.13;;;;;;;25.40;70.94;97010.34;1823191;77;25812;-84
2021/07/16 08:13:04;;;;;;;17.45;14.18;;;;;;;25.64;70.36;97010.57;1823647;78;28179;-86
2021/07/16 08:15:30;;;;;;;16.25;13.90;;;;;;;25.81;69.98;97010.66;1823537;77;25910;-85
2021/07/16 08:17:57;;;;;;;15.50;13.22;;;;;;;26.10;69.71;97012.30;1814468;78;25737;-85
2021/07/16 08:20:24;;;;;;;15.43;13.78;;;;;;;26.46;69.20;97017.62;1823471;78;25761;-85
2021/07/16 08:22:50;;;;;;;14.87;13.05;;;;;;;26.79;68.51;97018.00;1788038;78;25673;-84
2021/07/16 08:25:17;;;;;;;14.53;13.00;;;;;;;26.99;67.99;97019.33;1805972;77;27497;-85
2021/07/16 08:27:45;;;;;;;20.45;13.40;;;;;;;27.18;67.82;97018.97;1823485;78;25763;-84
2021/07/16 08:30:12;;;;;;;15.48;12.98;;;;;;;27.25;67.08;97012.38;1823600;78;26282;-87
2021/07/16 08:32:39;;;;;;;18.98;12.05;;;;;;;27.35;66.68;97018.96;1823197;78;25948;-83
2021/07/16 08:35:07;;;;;;;15.85;12.63;;;;;;;27.47;66.64;97017.71;1817578;78;25671;-89
2021/07/16 08:37:34;;;;;;;14.80;13.03;;;;;;;27.66;66.03;97023.47;1796647;78;27513;-85
2021/07/16 08:40:03;;;;;;;14.68;13.05;;;;;;;27.79;65.63;97018.29;1823019;78;26165;-83
2021/07/16 08:42:30;;;;;;;22.15;12.93;;;;;;;27.94;65.43;97017.17;1823624;78;25789;-86
2021/07/16 08:44:56;;;;;;;15.23;12.50;;;;;;;28.24;64.78;97020.02;1823761;78;26308;-83
2021/07/16 08:47:24;;;;;;;14.68;13.18;;;;;;;28.50;64.43;97017.88;1802864;78;25665;-88
2021/07/16 08:49:51;;;;;;;14.58;13.08;;;;;;;28.77;63.87;97016.55;1814416;78;27528;-86
2021/07/16 08:52:17;;;;;;;16.05;12.13;;;;;;;28.77;63.17;97022.11;1823344;78;25781;-85
2021/07/16 08:54:47;;;;;;;16.32;11.65;;;;;;;28.83;62.89;97016.62;1823927;78;25732;-82
2021/07/16 08:57:14;;;;;;;15.25;11.55;;;;;;;29.16;62.65;97016.67;1819522;78;25852;-88
2021/07/16 08:59:41;;;;;;;13.48;11.70;;;;;;;29.42;61.87;97023.41;1823653;78;25673;-89
2021/07/16 09:02:09;;;;;;;13.43;11.53;;;;;;;29.43;61.31;97022.25;1823472;78;27607;-89
2021/07/16 09:04:40;;;;;;;14.20;11.85;;;;;;;29.46;60.97;97020.77;1805209;78;25723;-89
2021/07/16 09:07:07;;;;;;;;;;;;;;;29.36;60.59;97017.78;1816364;77;25452;-87
2021/07/16 09:09:39;;;;;;;15.08;12.18;;;;;;;29.19;59.80;97008.23;1823467;78;26405;-86
2021/07/16 09:12:12;;;;;;;14.30;12.13;;;;;;;29.37;60.81;97006.89;1823798;78;25767;-87
2021/07/16 09:14:40;;;;;;;14.85;11.73;;;;;;;29.76;60.14;97011.66;1823462;78;28170;-88
2021/07/16 09:17:12;;;;;;;12.93;11.18;;;;;;;29.97;59.61;97011.02;1823771;78;25736;-91
2021/07/16 09:19:48;;;;;;;14.28;12.33;;;;;;;29.99;59.22;97000.36;1822369;78;25715;-83
2021/07/16 09:22:21;;;;;;;14.63;11.78;;;;;;;30.18;58.67;97014.53;1823828;77;25779;-88
2021/07/16 09:24:54;;;;;;;14.18;12.28;;;;;;;30.46;57.90;97021.58;1823498;78;25208;-85
2021/07/16 09:27:44;;;;;;;15.58;11.80;;;;;;;30.57;58.06;97021.36;1823741;78;28715;-90
2021/07/16 09:30:24;;;;;;;14.55;12.37;;;;;;;30.83;57.06;97016.80;1823251;78;26270;-92
2021/07/16 09:32:56;;;;;;;14.87;12.88;;;;;;;30.78;56.68;97014.27;1803976;78;26268;-86
2021/07/16 09:35:38;;;;;;;15.30;13.65;;;;;;;30.92;56.83;97016.06;1792821;78;26361;-88
2021/07/16 09:38:11;;;;;;;18.70;15.40;;;;;;;31.11;55.31;97019.07;1823605;78;25629;-85
2021/07/16 09:40:52;;;;;;;18.20;16.17;;;;;;;30.97;55.53;97021.98;1794845;78;27432;-84
2021/07/16 09:43:20;;;;;;;19.45;16.67;;;;;;;31.14;55.25;97028.71;1816994;77;25732;-83
2021/07/16 09:46:03;;;;;;;19.92;17.80;;;;;;;31.17;54.50;97029.95;1824366;78;25745;-86
2021/07/16 09:48:36;;;;;;;21.27;19.17;;;;;;;31.08;54.58;97021.13;1806291;78;25716;-85
2021/07/16 09:51:26;;;;;;;19.80;17.70;;;;;;;31.16;54.59;97022.78;1804004;78;25740;-85
2021/07/16 09:54:03;;;;;;;21.40;18.07;;;;;;;31.20;54.05;97018.91;1804097;77;28278;-85
2021/07/16 09:56:36;;;;;;;27.10;19.87;;;;;;;31.03;54.03;97025.58;1826868;78;25203;-92
2021/07/16 09:59:17;;;;;;;23.40;20.65;;;;;;;30.90;53.92;97030.14;1826653;77;25776;-90
2021/07/16 10:01:50;;;;;;;22.95;19.07;;;;;;;30.73;54.10;97029.83;1818483;77;25806;-89
2021/07/16 10:04:23;;;;;;;22.77;20.40;;;;;;;30.71;54.12;97034.92;1827016;78;25733;-89
2021/07/16 10:06:47;;;;;;;23.60;20.55;;;;;;;30.54;53.94;97032.41;1803015;77;27704;-88
2021/07/16 10:09:16;;;;;;;24.43;20.57;;;;;;;30.49;53.98;97030.64;1826874;78;25830;-83
2021/07/16 10:11:48;;;;;;;24.98;21.37;;;;;;;30.67;53.80;97026.45;1826769;77;25730;-86
2021/07/16 10:14:16;;;;;;;23.60;21.10;;;;;;;30.66;53.03;97025.44;1825991;77;26219;-84
2021/07/16 10:16:47;;;;;;;24.72;22.13;;;;;;;30.58;53.25;97027.75;1827050;77;25681;-86
2021/07/16 10:19:16;;;;;;;25.25;22.67;;;;;;;30.57;53.20;97032.50;1819707;78;27402;-86
2021/07/16 10:21:46;;;;;;;26.65;23.70;;;;;;;30.73;52.99;97029.24;1826826;77;25788;-81
2021/07/16 10:24:19;;;;;;;26.97;23.42;;;;;;;30.71;53.44;97023.20;1813924;77;25274;-88
2021/07/16 10:26:50;;;;;;;27.17;23.22;;;;;;;30.66;53.27;97022.65;1826634;77;25839;-84
2021/07/16 10:29:38;;;;;;;25.97;22.98;;;;;;;30.81;53.19;97020.51;1818106;77;25637;-85
2021/07/16 10:32:10;;;;;;;25.65;22.95;;;;;;;30.92;52.89;97014.67;1802612;78;28201;-83
2021/07/16 10:34:39;;;;;;;27.07;23.07;;;;;;;31.08;52.91;97023.92;1830220;77;25670;-85
2021/07/16 10:37:13;;;;;;;28.00;23.32;;;;;;;31.19;52.67;97019.27;1822804;77;25855;-88
2021/07/16 10:39:50;;;;;;;23.83;21.33;;;;;;;31.14;52.79;97014.19;1826278;78;25744;-84
2021/07/16 10:42:34;;;;;;;23.47;21.05;;;;;;;30.91;52.75;97014.47;1761869;81;25741;-82
2021/07/16 10:45:04;;;;;;;25.30;20.90;;;;;;;30.90;52.92;97012.03;1749462;80;27460;-83
2021/07/16 10:47:52;;;;;;;24.57;19.80;;;;;;;31.00;52.39;97015.13;1775970;80;25646;-91
2021/07/16 10:50:33;;;;;;;27.10;22.35;;;;;;;31.05;52.43;97009.29;1784685;80;25661;-88
2021/07/16 10:53:00;;;;;;;30.57;23.98;;;;;;;31.16;52.35;97004.66;1784159;80;26512;-85
2021/07/16 10:55:37;;;;;;;27.30;24.12;;;;;;;31.31;52.16;97001.09;1784619;80;25729;-85
2021/07/16 10:58:40;;;;;;;26.65;22.13;;;;;;;31.40;51.74;97003.94;1756504;80;27311;-88
2021/07/16 11:01:08;;;;;;;26.70;22.50;;;;;;;31.48;51.75;97004.97;1775823;80;25674;-86
2021/07/16 11:03:51;;;;;;;27.22;23.60;;;;;;;31.43;51.80;97013.00;1784481;80;25721;-87
2021/07/16 11:06:20;;;;;;;27.20;23.75;;;;;;;31.51;51.70;97004.27;1784643;80;26340;-86
2021/07/16 11:08:51;;;;;;;24.87;22.22;;;;;;;31.56;51.28;97003.17;1780915;80;25859;-83
2021/07/16 11:11:38;;;;;;;25.50;22.87;;;;;;;31.59;51.14;97006.06;1772973;79;27411;-83
2021/07/16 11:14:06;;;;;;;24.05;21.48;;;;;;;31.64;50.86;97015.58;1759047;80;25312;-83
2021/07/16 11:16:41;;;;;;;24.45;21.85;;;;;;;31.53;50.50;97011.66;1784571;79;26347;-84
2021/07/16 11:19:13;;;;;;;24.85;22.00;;;;;;;31.40;50.82;97009.52;1758513;80;25736;-82
2021/07/16 11:21:49;;;;;;;25.00;21.02;;;;;;;31.33;50.55;97017.70;1757493;80;25701;-90
2021/07/16 11:26:54;;;;;;;24.05;21.60;;;;;;;30.79;50.71;97012.50;1766883;80;26329;-84